Smithville, MS

11:06 PM CDT on August 31, 2016 (GMT -0500)
Amory | | Change Station

Elev 233 ft 33.98 °N, 88.49 °W | Updated 1 second ago

Clear
Clear
82.3 °F
Feels Like 88 °F
N
1.0
Wind Variable Wind from NE
Gusts 5.0 mph

Today
High -- | Low -- °F
--% Chance of Precip.
Yesterday
High -- | Low -- °F
Precip. -- in
Pressure 29.93 in
Visibility 7.0 miles
Clouds Clear
Heat Index 88 °F
Dew Point 74 °F
Humidity 75%
Rainfall 0.00 in
Snow Depth Not available.
6:26 AM 7:19 PM
Waning Crescent, 0% visible
METAR KM40 010355Z AUTO 00000KT 7SM CLR 24/14 A2993 RMK AO2
Pressure 29.93 in
Visibility 7.0 miles
Clouds Clear
Heat Index 88 °F
Dew Point 74 °F
Humidity 75%
Rainfall 0.00 in
Snow Depth Not available.
6:26 AM 7:19 PM
Waning Crescent, 0% visible
METAR KM40 010355Z AUTO 00000KT 7SM CLR 24/14 A2993 RMK AO2

10-Day Weather Forecast

Almanac

Astronomy

Aug. 31, 2016 Rise Set
Actual Time
Civil Twilight
Nautical Twilight
Astronomical Twilight
Moon
Length of Visible Light
Length of Day
Tomorrow will be .
, % of the Moon is Illuminated

Today's Extremes

State Highs State Lows

Community

WunderPhotos

Upload Photos

1,936,293 photos uploaded!

WunderBlog® & News

Nearby

Air Quality

  Air Quality AQ Index Pollutant
Not available.

Snow Depth

Station Depth Elevation

Earthquake Activity

City Distance Mag. Time & Date
Minimum magnitude displayed is 2.5.

Coastal Water Temperatures

Place Temperature

Stations

Nearby Weather Stations

Station Location Temp. Windchill Dew Point Humidity Wind Precip. Elev Updated Type
                   

Watches & Warnings

There are currently no watches in effect.